sensor_id;sensor_type;location;lat;lon;timestamp;P1;durP1;ratioP1;P2;durP2;ratioP2
36091;SDS011;22147;52.388;13.390;2023-05-07T00:00:21;14.99;;;14.99;;
36091;SDS011;22147;52.388;13.390;2023-05-07T00:02:49;14.53;;;14.53;;
36091;SDS011;22147;52.388;13.390;2023-05-07T00:05:18;14.72;;;14.72;;
36091;SDS011;22147;52.388;13.390;2023-05-07T00:07:46;15.26;;;15.26;;
36091;SDS011;22147;52.388;13.390;2023-05-07T00:10:15;14.89;;;14.89;;
36091;SDS011;22147;52.388;13.390;2023-05-07T00:12:43;15.15;;;15.15;;
36091;SDS011;22147;52.388;13.390;2023-05-07T00:15:11;15.00;;;15.00;;
36091;SDS011;22147;52.388;13.390;2023-05-07T00:17:40;14.82;;;14.82;;
36091;SDS011;22147;52.388;13.390;2023-05-07T00:20:08;14.86;;;14.86;;
36091;SDS011;22147;52.388;13.390;2023-05-07T00:22:37;13.88;;;13.88;;
36091;SDS011;22147;52.388;13.390;2023-05-07T00:25:05;14.86;;;14.86;;
36091;SDS011;22147;52.388;13.390;2023-05-07T00:27:34;15.11;;;15.11;;
36091;SDS011;22147;52.388;13.390;2023-05-07T00:30:02;15.03;;;15.03;;
36091;SDS011;22147;52.388;13.390;2023-05-07T00:32:31;14.45;;;14.45;;
36091;SDS011;22147;52.388;13.390;2023-05-07T00:34:59;13.98;;;13.98;;
36091;SDS011;22147;52.388;13.390;2023-05-07T00:37:28;14.47;;;14.47;;
36091;SDS011;22147;52.388;13.390;2023-05-07T00:39:59;14.18;;;14.18;;
36091;SDS011;22147;52.388;13.390;2023-05-07T00:42:29;13.11;;;13.11;;
36091;SDS011;22147;52.388;13.390;2023-05-07T00:45:02;13.36;;;13.36;;
36091;SDS011;22147;52.388;13.390;2023-05-07T00:47:32;12.62;;;12.62;;
36091;SDS011;22147;52.388;13.390;2023-05-07T00:50:00;13.92;;;13.92;;
36091;SDS011;22147;52.388;13.390;2023-05-07T00:52:29;13.19;;;13.19;;
36091;SDS011;22147;52.388;13.390;2023-05-07T00:54:57;13.56;;;13.56;;
36091;SDS011;22147;52.388;13.390;2023-05-07T00:57:36;12.95;;;12.95;;
36091;SDS011;22147;52.388;13.390;2023-05-07T01:00:10;12.89;;;12.89;;
36091;SDS011;22147;52.388;13.390;2023-05-07T01:02:43;12.65;;;12.65;;
36091;SDS011;22147;52.388;13.390;2023-05-07T01:05:15;12.69;;;12.69;;
36091;SDS011;22147;52.388;13.390;2023-05-07T01:07:50;12.43;;;12.43;;
36091;SDS011;22147;52.388;13.390;2023-05-07T01:10:24;12.26;;;12.26;;
36091;SDS011;22147;52.388;13.390;2023-05-07T01:12:55;11.75;;;11.75;;
36091;SDS011;22147;52.388;13.390;2023-05-07T01:15:29;11.25;;;11.25;;
36091;SDS011;22147;52.388;13.390;2023-05-07T01:17:59;11.69;;;11.69;;
36091;SDS011;22147;52.388;13.390;2023-05-07T01:20:29;11.17;;;11.17;;
36091;SDS011;22147;52.388;13.390;2023-05-07T01:22:58;10.58;;;10.58;;
36091;SDS011;22147;52.388;13.390;2023-05-07T01:25:29;11.30;;;11.30;;
36091;SDS011;22147;52.388;13.390;2023-05-07T01:27:58;10.86;;;10.86;;
36091;SDS011;22147;52.388;13.390;2023-05-07T01:30:31;11.03;;;11.03;;
36091;SDS011;22147;52.388;13.390;2023-05-07T01:33:09;10.48;;;10.48;;
36091;SDS011;22147;52.388;13.390;2023-05-07T01:35:45;11.37;;;11.37;;
36091;SDS011;22147;52.388;13.390;2023-05-07T01:38:22;12.29;;;12.29;;
36091;SDS011;22147;52.388;13.390;2023-05-07T01:40:54;12.31;;;12.31;;
36091;SDS011;22147;52.388;13.390;2023-05-07T01:43:25;12.28;;;12.28;;
36091;SDS011;22147;52.388;13.390;2023-05-07T01:45:56;12.97;;;12.97;;
36091;SDS011;22147;52.388;13.390;2023-05-07T01:48:26;13.31;;;13.31;;
36091;SDS011;22147;52.388;13.390;2023-05-07T01:50:56;12.80;;;12.80;;
36091;SDS011;22147;52.388;13.390;2023-05-07T01:53:27;13.23;;;13.23;;
36091;SDS011;22147;52.388;13.390;2023-05-07T01:55:57;12.15;;;12.15;;
36091;SDS011;22147;52.388;13.390;2023-05-07T01:58:27;12.42;;;12.42;;
36091;SDS011;22147;52.388;13.390;2023-05-07T02:00:57;12.43;;;12.43;;
36091;SDS011;22147;52.388;13.390;2023-05-07T02:03:27;12.54;;;12.54;;
36091;SDS011;22147;52.388;13.390;2023-05-07T02:05:58;12.95;;;12.95;;
36091;SDS011;22147;52.388;13.390;2023-05-07T02:08:28;12.01;;;12.01;;
36091;SDS011;22147;52.388;13.390;2023-05-07T02:10:58;12.86;;;12.86;;
36091;SDS011;22147;52.388;13.390;2023-05-07T02:13:28;12.03;;;12.03;;
36091;SDS011;22147;52.388;13.390;2023-05-07T02:16:02;12.19;;;12.19;;
36091;SDS011;22147;52.388;13.390;2023-05-07T02:18:32;11.50;;;11.50;;
36091;SDS011;22147;52.388;13.390;2023-05-07T02:21:00;11.10;;;11.10;;
36091;SDS011;22147;52.388;13.390;2023-05-07T02:23:30;11.73;;;11.73;;
36091;SDS011;22147;52.388;13.390;2023-05-07T02:26:00;12.12;;;12.12;;
36091;SDS011;22147;52.388;13.390;2023-05-07T02:28:30;12.84;;;12.84;;
36091;SDS011;22147;52.388;13.390;2023-05-07T02:31:02;12.98;;;12.98;;
36091;SDS011;22147;52.388;13.390;2023-05-07T02:33:33;12.62;;;12.62;;
36091;SDS011;22147;52.388;13.390;2023-05-07T02:36:07;13.04;;;13.04;;
36091;SDS011;22147;52.388;13.390;2023-05-07T02:38:41;13.27;;;13.27;;
36091;SDS011;22147;52.388;13.390;2023-05-07T02:41:08;13.30;;;13.30;;
36091;SDS011;22147;52.388;13.390;2023-05-07T02:43:37;12.98;;;12.98;;
36091;SDS011;22147;52.388;13.390;2023-05-07T02:46:06;11.98;;;11.98;;
36091;SDS011;22147;52.388;13.390;2023-05-07T02:48:37;12.70;;;12.70;;
36091;SDS011;22147;52.388;13.390;2023-05-07T02:51:06;12.15;;;12.15;;
36091;SDS011;22147;52.388;13.390;2023-05-07T02:53:34;12.49;;;12.49;;
36091;SDS011;22147;52.388;13.390;2023-05-07T02:56:03;12.39;;;12.39;;
36091;SDS011;22147;52.388;13.390;2023-05-07T02:58:31;12.60;;;12.60;;
36091;SDS011;22147;52.388;13.390;2023-05-07T03:00:59;11.96;;;11.96;;
36091;SDS011;22147;52.388;13.390;2023-05-07T03:03:28;11.79;;;11.79;;
36091;SDS011;22147;52.388;13.390;2023-05-07T03:05:56;12.30;;;12.30;;
36091;SDS011;22147;52.388;13.390;2023-05-07T03:08:24;12.79;;;12.79;;
36091;SDS011;22147;52.388;13.390;2023-05-07T03:10:53;12.12;;;12.12;;
36091;SDS011;22147;52.388;13.390;2023-05-07T03:13:21;12.56;;;12.56;;
36091;SDS011;22147;52.388;13.390;2023-05-07T03:15:50;12.41;;;12.41;;
36091;SDS011;22147;52.388;13.390;2023-05-07T03:18:18;12.79;;;12.79;;
36091;SDS011;22147;52.388;13.390;2023-05-07T03:20:47;13.11;;;13.11;;
36091;SDS011;22147;52.388;13.390;2023-05-07T03:23:15;12.85;;;12.85;;
36091;SDS011;22147;52.388;13.390;2023-05-07T03:25:43;13.29;;;13.29;;
36091;SDS011;22147;52.388;13.390;2023-05-07T03:28:12;13.36;;;13.36;;
36091;SDS011;22147;52.388;13.390;2023-05-07T03:30:40;13.32;;;13.32;;
36091;SDS011;22147;52.388;13.390;2023-05-07T03:33:09;13.29;;;13.29;;
36091;SDS011;22147;52.388;13.390;2023-05-07T03:35:37;13.37;;;13.37;;
36091;SDS011;22147;52.388;13.390;2023-05-07T03:38:07;13.90;;;13.90;;
36091;SDS011;22147;52.388;13.390;2023-05-07T03:40:37;12.90;;;12.90;;
36091;SDS011;22147;52.388;13.390;2023-05-07T03:43:07;13.46;;;13.46;;
36091;SDS011;22147;52.388;13.390;2023-05-07T03:45:37;13.28;;;13.28;;
36091;SDS011;22147;52.388;13.390;2023-05-07T03:48:07;13.64;;;13.64;;
36091;SDS011;22147;52.388;13.390;2023-05-07T03:50:37;12.98;;;12.98;;
36091;SDS011;22147;52.388;13.390;2023-05-07T03:53:08;13.36;;;13.36;;
36091;SDS011;22147;52.388;13.390;2023-05-07T03:55:38;13.31;;;13.31;;
36091;SDS011;22147;52.388;13.390;2023-05-07T03:58:08;13.51;;;13.51;;
36091;SDS011;22147;52.388;13.390;2023-05-07T04:00:38;13.89;;;13.89;;
36091;SDS011;22147;52.388;13.390;2023-05-07T04:03:09;13.26;;;13.26;;
36091;SDS011;22147;52.388;13.390;2023-05-07T04:05:39;12.96;;;12.96;;
36091;SDS011;22147;52.388;13.390;2023-05-07T04:08:09;12.45;;;12.45;;
36091;SDS011;22147;52.388;13.390;2023-05-07T04:10:39;12.06;;;12.06;;
36091;SDS011;22147;52.388;13.390;2023-05-07T04:13:09;12.32;;;12.32;;
36091;SDS011;22147;52.388;13.390;2023-05-07T04:15:39;12.60;;;12.60;;
36091;SDS011;22147;52.388;13.390;2023-05-07T04:18:09;12.80;;;12.80;;
36091;SDS011;22147;52.388;13.390;2023-05-07T04:20:39;12.96;;;12.96;;
36091;SDS011;22147;52.388;13.390;2023-05-07T04:23:09;12.97;;;12.97;;
36091;SDS011;22147;52.388;13.390;2023-05-07T04:25:40;12.98;;;12.98;;
36091;SDS011;22147;52.388;13.390;2023-05-07T04:28:10;12.54;;;12.54;;
36091;SDS011;22147;52.388;13.390;2023-05-07T04:30:40;12.92;;;12.92;;
36091;SDS011;22147;52.388;13.390;2023-05-07T04:33:10;12.56;;;12.56;;
36091;SDS011;22147;52.388;13.390;2023-05-07T04:35:41;12.68;;;12.68;;
36091;SDS011;22147;52.388;13.390;2023-05-07T04:38:11;12.66;;;12.66;;
36091;SDS011;22147;52.388;13.390;2023-05-07T04:40:41;12.32;;;12.32;;
36091;SDS011;22147;52.388;13.390;2023-05-07T04:43:11;12.09;;;12.09;;
36091;SDS011;22147;52.388;13.390;2023-05-07T04:45:41;12.19;;;12.19;;
36091;SDS011;22147;52.388;13.390;2023-05-07T04:48:10;12.58;;;12.58;;
36091;SDS011;22147;52.388;13.390;2023-05-07T04:50:38;12.30;;;12.30;;
36091;SDS011;22147;52.388;13.390;2023-05-07T04:53:06;11.72;;;11.72;;
36091;SDS011;22147;52.388;13.390;2023-05-07T04:55:35;11.58;;;11.58;;
36091;SDS011;22147;52.388;13.390;2023-05-07T04:58:03;10.70;;;10.70;;
36091;SDS011;22147;52.388;13.390;2023-05-07T05:00:32;11.60;;;11.60;;
36091;SDS011;22147;52.388;13.390;2023-05-07T05:03:00;12.56;;;12.56;;
36091;SDS011;22147;52.388;13.390;2023-05-07T05:05:28;12.02;;;12.02;;
36091;SDS011;22147;52.388;13.390;2023-05-07T05:07:57;12.28;;;12.28;;
36091;SDS011;22147;52.388;13.390;2023-05-07T05:10:25;11.94;;;11.94;;
36091;SDS011;22147;52.388;13.390;2023-05-07T05:12:54;11.88;;;11.88;;
36091;SDS011;22147;52.388;13.390;2023-05-07T05:15:22;11.87;;;11.87;;
36091;SDS011;22147;52.388;13.390;2023-05-07T05:17:51;11.77;;;11.77;;
36091;SDS011;22147;52.388;13.390;2023-05-07T05:20:19;11.08;;;11.08;;
36091;SDS011;22147;52.388;13.390;2023-05-07T05:22:47;10.70;;;10.70;;
36091;SDS011;22147;52.388;13.390;2023-05-07T05:25:16;10.52;;;10.52;;
36091;SDS011;22147;52.388;13.390;2023-05-07T05:27:44;10.24;;;10.24;;
36091;SDS011;22147;52.388;13.390;2023-05-07T05:30:13;9.79;;;9.79;;
36091;SDS011;22147;52.388;13.390;2023-05-07T05:32:41;10.16;;;10.16;;
36091;SDS011;22147;52.388;13.390;2023-05-07T05:35:09;9.90;;;9.90;;
36091;SDS011;22147;52.388;13.390;2023-05-07T05:37:38;9.77;;;9.77;;
36091;SDS011;22147;52.388;13.390;2023-05-07T05:40:06;9.83;;;9.83;;
36091;SDS011;22147;52.388;13.390;2023-05-07T05:42:35;10.35;;;10.35;;
36091;SDS011;22147;52.388;13.390;2023-05-07T05:45:03;10.36;;;10.36;;
36091;SDS011;22147;52.388;13.390;2023-05-07T05:47:32;9.51;;;9.51;;
36091;SDS011;22147;52.388;13.390;2023-05-07T05:50:00;9.60;;;9.60;;
36091;SDS011;22147;52.388;13.390;2023-05-07T05:52:28;9.57;;;9.57;;
36091;SDS011;22147;52.388;13.390;2023-05-07T05:54:57;9.37;;;9.37;;
36091;SDS011;22147;52.388;13.390;2023-05-07T05:57:25;9.25;;;9.25;;
36091;SDS011;22147;52.388;13.390;2023-05-07T05:59:57;9.51;;;9.51;;
36091;SDS011;22147;52.388;13.390;2023-05-07T06:02:25;9.64;;;9.64;;
36091;SDS011;22147;52.388;13.390;2023-05-07T06:04:53;9.22;;;9.22;;
36091;SDS011;22147;52.388;13.390;2023-05-07T06:07:22;9.23;;;9.23;;
36091;SDS011;22147;52.388;13.390;2023-05-07T06:09:50;8.73;;;8.73;;
36091;SDS011;22147;52.388;13.390;2023-05-07T06:12:19;8.66;;;8.66;;
36091;SDS011;22147;52.388;13.390;2023-05-07T06:14:47;8.36;;;8.36;;
36091;SDS011;22147;52.388;13.390;2023-05-07T06:17:16;8.08;;;8.08;;
36091;SDS011;22147;52.388;13.390;2023-05-07T06:19:49;7.89;;;7.89;;
36091;SDS011;22147;52.388;13.390;2023-05-07T06:22:20;7.88;;;7.88;;
36091;SDS011;22147;52.388;13.390;2023-05-07T06:24:50;8.15;;;8.15;;
36091;SDS011;22147;52.388;13.390;2023-05-07T06:27:20;7.79;;;7.79;;
36091;SDS011;22147;52.388;13.390;2023-05-07T06:29:50;7.81;;;7.81;;
36091;SDS011;22147;52.388;13.390;2023-05-07T06:32:20;8.09;;;8.09;;
36091;SDS011;22147;52.388;13.390;2023-05-07T06:34:50;8.62;;;8.62;;
36091;SDS011;22147;52.388;13.390;2023-05-07T06:37:20;8.14;;;8.14;;
36091;SDS011;22147;52.388;13.390;2023-05-07T06:39:50;8.87;;;8.87;;
36091;SDS011;22147;52.388;13.390;2023-05-07T06:42:20;8.71;;;8.71;;
36091;SDS011;22147;52.388;13.390;2023-05-07T06:44:50;9.04;;;9.04;;
36091;SDS011;22147;52.388;13.390;2023-05-07T06:47:20;9.14;;;9.14;;
36091;SDS011;22147;52.388;13.390;2023-05-07T06:49:50;8.91;;;8.91;;
36091;SDS011;22147;52.388;13.390;2023-05-07T06:52:20;8.95;;;8.95;;
36091;SDS011;22147;52.388;13.390;2023-05-07T06:54:51;8.88;;;8.88;;
36091;SDS011;22147;52.388;13.390;2023-05-07T06:57:21;8.84;;;8.84;;
36091;SDS011;22147;52.388;13.390;2023-05-07T06:59:51;8.99;;;8.99;;
36091;SDS011;22147;52.388;13.390;2023-05-07T07:02:21;8.41;;;8.41;;
36091;SDS011;22147;52.388;13.390;2023-05-07T07:04:51;8.55;;;8.55;;
36091;SDS011;22147;52.388;13.390;2023-05-07T07:07:21;8.85;;;8.85;;
36091;SDS011;22147;52.388;13.390;2023-05-07T07:09:51;8.69;;;8.69;;
36091;SDS011;22147;52.388;13.390;2023-05-07T07:12:21;8.58;;;8.58;;
36091;SDS011;22147;52.388;13.390;2023-05-07T07:14:54;8.40;;;8.40;;
36091;SDS011;22147;52.388;13.390;2023-05-07T07:17:24;8.68;;;8.68;;
36091;SDS011;22147;52.388;13.390;2023-05-07T07:19:54;8.60;;;8.60;;
36091;SDS011;22147;52.388;13.390;2023-05-07T07:22:24;7.90;;;7.90;;
36091;SDS011;22147;52.388;13.390;2023-05-07T07:24:54;8.44;;;8.44;;
36091;SDS011;22147;52.388;13.390;2023-05-07T07:27:24;7.76;;;7.76;;
36091;SDS011;22147;52.388;13.390;2023-05-07T07:29:54;8.08;;;8.08;;
36091;SDS011;22147;52.388;13.390;2023-05-07T07:32:24;7.83;;;7.83;;
36091;SDS011;22147;52.388;13.390;2023-05-07T07:34:55;7.63;;;7.63;;
36091;SDS011;22147;52.388;13.390;2023-05-07T07:37:25;7.84;;;7.84;;
36091;SDS011;22147;52.388;13.390;2023-05-07T07:39:55;7.34;;;7.34;;
36091;SDS011;22147;52.388;13.390;2023-05-07T07:42:25;7.16;;;7.16;;
36091;SDS011;22147;52.388;13.390;2023-05-07T07:44:55;6.85;;;6.85;;
36091;SDS011;22147;52.388;13.390;2023-05-07T07:47:26;6.97;;;6.97;;
36091;SDS011;22147;52.388;13.390;2023-05-07T07:49:56;7.23;;;7.23;;
36091;SDS011;22147;52.388;13.390;2023-05-07T07:52:26;6.86;;;6.86;;
36091;SDS011;22147;52.388;13.390;2023-05-07T07:54:56;6.55;;;6.55;;
36091;SDS011;22147;52.388;13.390;2023-05-07T07:57:26;6.58;;;6.58;;
36091;SDS011;22147;52.388;13.390;2023-05-07T07:59:56;6.53;;;6.53;;
36091;SDS011;22147;52.388;13.390;2023-05-07T08:02:26;6.42;;;6.42;;
36091;SDS011;22147;52.388;13.390;2023-05-07T08:04:56;6.70;;;6.70;;
36091;SDS011;22147;52.388;13.390;2023-05-07T08:07:26;6.61;;;6.61;;
36091;SDS011;22147;52.388;13.390;2023-05-07T08:09:54;6.15;;;6.15;;
36091;SDS011;22147;52.388;13.390;2023-05-07T08:12:23;6.28;;;6.28;;
36091;SDS011;22147;52.388;13.390;2023-05-07T08:14:54;6.04;;;6.04;;
36091;SDS011;22147;52.388;13.390;2023-05-07T08:17:21;5.27;;;5.27;;
36091;SDS011;22147;52.388;13.390;2023-05-07T08:19:51;5.23;;;5.23;;
36091;SDS011;22147;52.388;13.390;2023-05-07T08:22:21;5.18;;;5.18;;
36091;SDS011;22147;52.388;13.390;2023-05-07T08:24:51;4.97;;;4.97;;
36091;SDS011;22147;52.388;13.390;2023-05-07T08:27:22;5.32;;;5.32;;
36091;SDS011;22147;52.388;13.390;2023-05-07T08:29:50;4.92;;;4.92;;
36091;SDS011;22147;52.388;13.390;2023-05-07T08:32:19;5.38;;;5.38;;
36091;SDS011;22147;52.388;13.390;2023-05-07T08:34:47;5.76;;;5.76;;
36091;SDS011;22147;52.388;13.390;2023-05-07T08:37:16;5.63;;;5.63;;
36091;SDS011;22147;52.388;13.390;2023-05-07T08:39:44;4.88;;;4.88;;
36091;SDS011;22147;52.388;13.390;2023-05-07T08:42:13;4.64;;;4.64;;
36091;SDS011;22147;52.388;13.390;2023-05-07T08:44:47;5.57;;;5.57;;
36091;SDS011;22147;52.388;13.390;2023-05-07T08:47:26;5.41;;;5.41;;
36091;SDS011;22147;52.388;13.390;2023-05-07T08:50:08;5.24;;;5.24;;
36091;SDS011;22147;52.388;13.390;2023-05-07T08:52:42;5.06;;;5.06;;
36091;SDS011;22147;52.388;13.390;2023-05-07T08:55:12;4.73;;;4.73;;
36091;SDS011;22147;52.388;13.390;2023-05-07T08:57:43;4.83;;;4.83;;
36091;SDS011;22147;52.388;13.390;2023-05-07T09:00:13;4.73;;;4.73;;
36091;SDS011;22147;52.388;13.390;2023-05-07T09:02:45;4.27;;;4.27;;
36091;SDS011;22147;52.388;13.390;2023-05-07T09:05:15;4.27;;;4.27;;
36091;SDS011;22147;52.388;13.390;2023-05-07T09:07:45;4.55;;;4.55;;
36091;SDS011;22147;52.388;13.390;2023-05-07T09:10:16;4.15;;;4.15;;
36091;SDS011;22147;52.388;13.390;2023-05-07T09:12:46;4.31;;;4.31;;
36091;SDS011;22147;52.388;13.390;2023-05-07T09:15:16;4.24;;;4.24;;
36091;SDS011;22147;52.388;13.390;2023-05-07T09:17:44;4.24;;;4.24;;
36091;SDS011;22147;52.388;13.390;2023-05-07T09:20:13;3.71;;;3.71;;
36091;SDS011;22147;52.388;13.390;2023-05-07T09:22:41;3.69;;;3.69;;
36091;SDS011;22147;52.388;13.390;2023-05-07T09:25:09;3.42;;;3.42;;
36091;SDS011;22147;52.388;13.390;2023-05-07T09:27:38;3.33;;;3.33;;
36091;SDS011;22147;52.388;13.390;2023-05-07T09:30:06;3.27;;;3.27;;
36091;SDS011;22147;52.388;13.390;2023-05-07T09:32:37;3.44;;;3.44;;
36091;SDS011;22147;52.388;13.390;2023-05-07T09:35:14;3.23;;;3.23;;
36091;SDS011;22147;52.388;13.390;2023-05-07T09:37:50;3.44;;;3.44;;
36091;SDS011;22147;52.388;13.390;2023-05-07T09:40:26;3.07;;;3.07;;
36091;SDS011;22147;52.388;13.390;2023-05-07T09:43:11;3.01;;;3.01;;
36091;SDS011;22147;52.388;13.390;2023-05-07T09:45:43;3.25;;;3.25;;
36091;SDS011;22147;52.388;13.390;2023-05-07T09:48:13;3.10;;;3.10;;
36091;SDS011;22147;52.388;13.390;2023-05-07T09:50:48;3.12;;;3.12;;
36091;SDS011;22147;52.388;13.390;2023-05-07T09:53:28;3.19;;;3.19;;
36091;SDS011;22147;52.388;13.390;2023-05-07T09:56:00;2.93;;;2.93;;
36091;SDS011;22147;52.388;13.390;2023-05-07T10:03:13;2.86;;;2.86;;
36091;SDS011;22147;52.388;13.390;2023-05-07T10:05:46;2.69;;;2.69;;
36091;SDS011;22147;52.388;13.390;2023-05-07T10:08:16;2.81;;;2.81;;
36091;SDS011;22147;52.388;13.390;2023-05-07T10:10:49;3.11;;;3.11;;
36091;SDS011;22147;52.388;13.390;2023-05-07T10:13:19;2.86;;;2.86;;
36091;SDS011;22147;52.388;13.390;2023-05-07T10:15:51;3.17;;;3.17;;
36091;SDS011;22147;52.388;13.390;2023-05-07T10:18:22;2.95;;;2.95;;
36091;SDS011;22147;52.388;13.390;2023-05-07T10:21:01;2.85;;;2.85;;
36091;SDS011;22147;52.388;13.390;2023-05-07T10:23:35;2.87;;;2.87;;
36091;SDS011;22147;52.388;13.390;2023-05-07T10:26:06;2.84;;;2.84;;
36091;SDS011;22147;52.388;13.390;2023-05-07T10:28:40;2.75;;;2.75;;
36091;SDS011;22147;52.388;13.390;2023-05-07T10:34:10;2.72;;;2.72;;
36091;SDS011;22147;52.388;13.390;2023-05-07T10:36:46;2.74;;;2.74;;
36091;SDS011;22147;52.388;13.390;2023-05-07T10:39:17;2.79;;;2.79;;
36091;SDS011;22147;52.388;13.390;2023-05-07T10:41:50;2.68;;;2.68;;
36091;SDS011;22147;52.388;13.390;2023-05-07T10:44:27;2.82;;;2.82;;
36091;SDS011;22147;52.388;13.390;2023-05-07T10:52:15;3.01;;;3.01;;
36091;SDS011;22147;52.388;13.390;2023-05-07T10:54:48;2.77;;;2.77;;
36091;SDS011;22147;52.388;13.390;2023-05-07T10:57:50;3.01;;;3.01;;
36091;SDS011;22147;52.388;13.390;2023-05-07T11:03:07;2.93;;;2.93;;
36091;SDS011;22147;52.388;13.390;2023-05-07T11:05:35;2.94;;;2.94;;
36091;SDS011;22147;52.388;13.390;2023-05-07T11:08:07;2.72;;;2.72;;
36091;SDS011;22147;52.388;13.390;2023-05-07T11:10:52;2.96;;;2.96;;
36091;SDS011;22147;52.388;13.390;2023-05-07T11:13:42;2.80;;;2.80;;
36091;SDS011;22147;52.388;13.390;2023-05-07T11:16:21;3.08;;;3.08;;
36091;SDS011;22147;52.388;13.390;2023-05-07T11:18:54;2.61;;;2.61;;
36091;SDS011;22147;52.388;13.390;2023-05-07T11:21:38;2.76;;;2.76;;
36091;SDS011;22147;52.388;13.390;2023-05-07T11:24:11;2.78;;;2.78;;
36091;SDS011;22147;52.388;13.390;2023-05-07T11:26:45;2.69;;;2.69;;
36091;SDS011;22147;52.388;13.390;2023-05-07T11:29:20;2.87;;;2.87;;
36091;SDS011;22147;52.388;13.390;2023-05-07T11:31:52;2.85;;;2.85;;
36091;SDS011;22147;52.388;13.390;2023-05-07T11:34:25;3.11;;;3.11;;
36091;SDS011;22147;52.388;13.390;2023-05-07T11:36:56;2.95;;;2.95;;
36091;SDS011;22147;52.388;13.390;2023-05-07T11:39:32;2.63;;;2.63;;
36091;SDS011;22147;52.388;13.390;2023-05-07T11:42:02;2.66;;;2.66;;
36091;SDS011;22147;52.388;13.390;2023-05-07T11:44:45;2.71;;;2.71;;
36091;SDS011;22147;52.388;13.390;2023-05-07T11:47:17;2.86;;;2.86;;
36091;SDS011;22147;52.388;13.390;2023-05-07T11:49:49;2.91;;;2.91;;
36091;SDS011;22147;52.388;13.390;2023-05-07T11:53:58;3.23;;;3.07;;
36091;SDS011;22147;52.388;13.390;2023-05-07T11:56:28;2.74;;;2.74;;
36091;SDS011;22147;52.388;13.390;2023-05-07T11:58:58;2.83;;;2.83;;
36091;SDS011;22147;52.388;13.390;2023-05-07T12:01:27;2.92;;;2.92;;
36091;SDS011;22147;52.388;13.390;2023-05-07T12:03:57;3.07;;;3.07;;
36091;SDS011;22147;52.388;13.390;2023-05-07T12:06:27;3.03;;;3.03;;
36091;SDS011;22147;52.388;13.390;2023-05-07T12:08:57;2.93;;;2.93;;
36091;SDS011;22147;52.388;13.390;2023-05-07T12:11:27;3.02;;;3.02;;
36091;SDS011;22147;52.388;13.390;2023-05-07T12:13:56;2.90;;;2.90;;
36091;SDS011;22147;52.388;13.390;2023-05-07T12:16:27;2.99;;;2.99;;
36091;SDS011;22147;52.388;13.390;2023-05-07T12:18:58;2.67;;;2.67;;
36091;SDS011;22147;52.388;13.390;2023-05-07T12:21:29;2.79;;;2.79;;
36091;SDS011;22147;52.388;13.390;2023-05-07T12:23:58;2.78;;;2.78;;
36091;SDS011;22147;52.388;13.390;2023-05-07T12:26:26;2.79;;;2.79;;
36091;SDS011;22147;52.388;13.390;2023-05-07T12:28:57;2.46;;;2.46;;
36091;SDS011;22147;52.388;13.390;2023-05-07T12:31:26;2.58;;;2.58;;
36091;SDS011;22147;52.388;13.390;2023-05-07T12:33:56;2.61;;;2.61;;
36091;SDS011;22147;52.388;13.390;2023-05-07T12:36:26;2.50;;;2.50;;
36091;SDS011;22147;52.388;13.390;2023-05-07T12:39:06;2.74;;;2.74;;
36091;SDS011;22147;52.388;13.390;2023-05-07T12:41:55;2.71;;;2.71;;
36091;SDS011;22147;52.388;13.390;2023-05-07T12:44:30;2.61;;;2.61;;
36091;SDS011;22147;52.388;13.390;2023-05-07T12:47:02;2.74;;;2.74;;
36091;SDS011;22147;52.388;13.390;2023-05-07T12:49:34;2.58;;;2.58;;
36091;SDS011;22147;52.388;13.390;2023-05-07T12:52:07;2.89;;;2.89;;
36091;SDS011;22147;52.388;13.390;2023-05-07T12:54:37;2.64;;;2.64;;
36091;SDS011;22147;52.388;13.390;2023-05-07T12:57:08;2.46;;;2.46;;
36091;SDS011;22147;52.388;13.390;2023-05-07T12:59:40;2.65;;;2.65;;
36091;SDS011;22147;52.388;13.390;2023-05-07T13:02:11;2.77;;;2.77;;
36091;SDS011;22147;52.388;13.390;2023-05-07T13:04:41;2.44;;;2.44;;
36091;SDS011;22147;52.388;13.390;2023-05-07T13:07:11;2.73;;;2.73;;
36091;SDS011;22147;52.388;13.390;2023-05-07T13:09:41;2.59;;;2.59;;
36091;SDS011;22147;52.388;13.390;2023-05-07T13:12:08;2.48;;;2.48;;
36091;SDS011;22147;52.388;13.390;2023-05-07T13:14:39;2.56;;;2.56;;
36091;SDS011;22147;52.388;13.390;2023-05-07T13:17:07;2.69;;;2.69;;
36091;SDS011;22147;52.388;13.390;2023-05-07T13:19:37;2.51;;;2.51;;
36091;SDS011;22147;52.388;13.390;2023-05-07T13:22:07;2.64;;;2.64;;
36091;SDS011;22147;52.388;13.390;2023-05-07T13:24:36;2.61;;;2.61;;
36091;SDS011;22147;52.388;13.390;2023-05-07T13:27:06;2.60;;;2.60;;
36091;SDS011;22147;52.388;13.390;2023-05-07T13:29:36;2.83;;;2.83;;
36091;SDS011;22147;52.388;13.390;2023-05-07T13:32:06;2.55;;;2.55;;
36091;SDS011;22147;52.388;13.390;2023-05-07T13:34:36;2.85;;;2.85;;
36091;SDS011;22147;52.388;13.390;2023-05-07T13:37:06;3.03;;;3.03;;
36091;SDS011;22147;52.388;13.390;2023-05-07T13:39:39;3.08;;;3.08;;
36091;SDS011;22147;52.388;13.390;2023-05-07T13:42:10;3.04;;;3.04;;
36091;SDS011;22147;52.388;13.390;2023-05-07T13:44:41;2.94;;;2.94;;
36091;SDS011;22147;52.388;13.390;2023-05-07T13:47:13;3.16;;;3.16;;
36091;SDS011;22147;52.388;13.390;2023-05-07T13:49:43;3.03;;;3.03;;
36091;SDS011;22147;52.388;13.390;2023-05-07T13:52:12;2.97;;;2.97;;
36091;SDS011;22147;52.388;13.390;2023-05-07T13:54:42;2.58;;;2.58;;
36091;SDS011;22147;52.388;13.390;2023-05-07T13:57:12;2.49;;;2.49;;
36091;SDS011;22147;52.388;13.390;2023-05-07T13:59:42;2.48;;;2.48;;
36091;SDS011;22147;52.388;13.390;2023-05-07T14:02:12;2.45;;;2.45;;
36091;SDS011;22147;52.388;13.390;2023-05-07T14:04:42;2.28;;;2.28;;
36091;SDS011;22147;52.388;13.390;2023-05-07T14:07:12;2.38;;;2.38;;
36091;SDS011;22147;52.388;13.390;2023-05-07T14:09:42;2.37;;;2.37;;
36091;SDS011;22147;52.388;13.390;2023-05-07T14:12:12;2.46;;;2.46;;
36091;SDS011;22147;52.388;13.390;2023-05-07T14:21:24;5.88;;;2.40;;
36091;SDS011;22147;52.388;13.390;2023-05-07T14:21:25;2.34;;;2.34;;
36091;SDS011;22147;52.388;13.390;2023-05-07T15:41:43;3.15;;;2.55;;
36091;SDS011;22147;52.388;13.390;2023-05-07T15:41:44;3.21;;;3.21;;
36091;SDS011;22147;52.388;13.390;2023-05-07T15:44:14;2.72;;;2.72;;
36091;SDS011;22147;52.388;13.390;2023-05-07T15:44:14;3.05;;;2.38;;
36091;SDS011;22147;52.388;13.390;2023-05-07T15:46:44;3.55;;;2.42;;
36091;SDS011;22147;52.388;13.390;2023-05-07T15:46:45;2.87;;;2.87;;
36091;SDS011;22147;52.388;13.390;2023-05-07T15:49:15;5.20;;;2.58;;
36091;SDS011;22147;52.388;13.390;2023-05-07T15:49:15;2.90;;;2.90;;
36091;SDS011;22147;52.388;13.390;2023-05-07T15:51:45;2.85;;;2.65;;
36091;SDS011;22147;52.388;13.390;2023-05-07T15:51:45;2.74;;;2.74;;
36091;SDS011;22147;52.388;13.390;2023-05-07T15:54:15;2.75;;;2.28;;
36091;SDS011;22147;52.388;13.390;2023-05-07T15:54:16;2.76;;;2.76;;
36091;SDS011;22147;52.388;13.390;2023-05-07T15:56:49;2.82;;;2.82;;
36091;SDS011;22147;52.388;13.390;2023-05-07T15:56:49;3.03;;;2.75;;
36091;SDS011;22147;52.388;13.390;2023-05-07T15:59:19;2.87;;;2.87;;
36091;SDS011;22147;52.388;13.390;2023-05-07T15:59:19;2.60;;;2.40;;
36091;SDS011;22147;52.388;13.390;2023-05-07T16:01:50;2.55;;;2.35;;